sensor_id;sensor_type;location;lat;lon;timestamp;temperature;humidity
53695;DHT22;39588;51.124;7.190;2022-09-30T00:01:20;9.50;99.90
53695;DHT22;39588;51.124;7.190;2022-09-30T00:03:46;8.20;99.40
53695;DHT22;39588;51.124;7.190;2022-09-30T00:06:14;8.20;99.50
53695;DHT22;39588;51.124;7.190;2022-09-30T00:08:40;8.20;99.40
53695;DHT22;39588;51.124;7.190;2022-09-30T00:11:31;8.20;99.50
53695;DHT22;39588;51.124;7.190;2022-09-30T00:13:58;8.20;99.70
53695;DHT22;39588;51.124;7.190;2022-09-30T00:16:27;8.20;99.60
53695;DHT22;39588;51.124;7.190;2022-09-30T00:18:55;8.10;99.50
53695;DHT22;39588;51.124;7.190;2022-09-30T00:21:21;8.10;99.70
53695;DHT22;39588;51.124;7.190;2022-09-30T00:23:48;8.10;99.60
53695;DHT22;39588;51.124;7.190;2022-09-30T00:26:17;8.20;99.60
53695;DHT22;39588;51.124;7.190;2022-09-30T00:28:43;8.10;99.70
53695;DHT22;39588;51.124;7.190;2022-09-30T00:31:14;8.10;99.60
53695;DHT22;39588;51.124;7.190;2022-09-30T00:33:42;8.10;99.70
53695;DHT22;39588;51.124;7.190;2022-09-30T00:36:08;8.10;99.70
53695;DHT22;39588;51.124;7.190;2022-09-30T00:38:34;8.40;99.90
53695;DHT22;39588;51.124;7.190;2022-09-30T00:41:01;8.10;99.70
53695;DHT22;39588;51.124;7.190;2022-09-30T00:43:40;8.20;99.90
53695;DHT22;39588;51.124;7.190;2022-09-30T00:46:19;8.10;99.70
53695;DHT22;39588;51.124;7.190;2022-09-30T00:48:47;8.10;99.80
53695;DHT22;39588;51.124;7.190;2022-09-30T00:51:31;8.00;99.70
53695;DHT22;39588;51.124;7.190;2022-09-30T00:54:03;8.00;99.60
53695;DHT22;39588;51.124;7.190;2022-09-30T00:56:42;8.10;99.80
53695;DHT22;39588;51.124;7.190;2022-09-30T00:59:28;8.00;99.90
53695;DHT22;39588;51.124;7.190;2022-09-30T01:01:55;8.00;99.80
53695;DHT22;39588;51.124;7.190;2022-09-30T01:04:23;8.10;99.80
53695;DHT22;39588;51.124;7.190;2022-09-30T01:06:49;8.10;99.80
53695;DHT22;39588;51.124;7.190;2022-09-30T01:09:16;8.00;99.80
53695;DHT22;39588;51.124;7.190;2022-09-30T01:11:42;8.10;99.80
53695;DHT22;39588;51.124;7.190;2022-09-30T01:14:14;8.00;99.70
53695;DHT22;39588;51.124;7.190;2022-09-30T01:27:45;7.90;99.80
53695;DHT22;39588;51.124;7.190;2022-09-30T01:33:20;7.90;99.70
53695;DHT22;39588;51.124;7.190;2022-09-30T01:36:06;7.80;99.70
53695;DHT22;39588;51.124;7.190;2022-09-30T01:38:43;7.80;99.80
53695;DHT22;39588;51.124;7.190;2022-09-30T01:41:26;7.80;99.80
53695;DHT22;39588;51.124;7.190;2022-09-30T01:44:18;7.80;99.90
53695;DHT22;39588;51.124;7.190;2022-09-30T01:58:04;7.80;99.90
53695;DHT22;39588;51.124;7.190;2022-09-30T02:00:35;7.80;99.90
53695;DHT22;39588;51.124;7.190;2022-09-30T02:05:52;7.70;99.90
53695;DHT22;39588;51.124;7.190;2022-09-30T02:08:28;7.70;99.90
53695;DHT22;39588;51.124;7.190;2022-09-30T02:10:58;7.70;99.90
53695;DHT22;39588;51.124;7.190;2022-09-30T02:13:39;7.70;99.90
53695;DHT22;39588;51.124;7.190;2022-09-30T02:16:13;7.70;99.90
53695;DHT22;39588;51.124;7.190;2022-09-30T02:18:49;7.60;99.90
53695;DHT22;39588;51.124;7.190;2022-09-30T02:21:42;7.60;99.90
53695;DHT22;39588;51.124;7.190;2022-09-30T02:24:12;7.50;99.80
53695;DHT22;39588;51.124;7.190;2022-09-30T02:26:41;7.50;99.90
53695;DHT22;39588;51.124;7.190;2022-09-30T02:29:18;7.50;99.90
53695;DHT22;39588;51.124;7.190;2022-09-30T02:31:49;7.50;99.80
53695;DHT22;39588;51.124;7.190;2022-09-30T02:34:37;7.50;99.80
53695;DHT22;39588;51.124;7.190;2022-09-30T02:37:18;7.40;99.80
53695;DHT22;39588;51.124;7.190;2022-09-30T02:40:05;7.40;99.90
53695;DHT22;39588;51.124;7.190;2022-09-30T02:42:35;7.40;99.90
53695;DHT22;39588;51.124;7.190;2022-09-30T02:45:05;7.30;99.90
53695;DHT22;39588;51.124;7.190;2022-09-30T02:50:18;7.30;99.90
53695;DHT22;39588;51.124;7.190;2022-09-30T02:53:18;7.40;99.90
53695;DHT22;39588;51.124;7.190;2022-09-30T02:58:38;7.30;99.90
53695;DHT22;39588;51.124;7.190;2022-09-30T03:01:13;7.30;99.90
53695;DHT22;39588;51.124;7.190;2022-09-30T03:03:46;7.30;99.90
53695;DHT22;39588;51.124;7.190;2022-09-30T03:06:13;7.30;99.90
53695;DHT22;39588;51.124;7.190;2022-09-30T03:08:40;7.30;99.90
53695;DHT22;39588;51.124;7.190;2022-09-30T03:11:06;7.30;99.90
53695;DHT22;39588;51.124;7.190;2022-09-30T03:28:26;7.20;99.90
53695;DHT22;39588;51.124;7.190;2022-09-30T03:36:26;7.30;99.90
53695;DHT22;39588;51.124;7.190;2022-09-30T03:45:09;7.30;99.90
53695;DHT22;39588;51.124;7.190;2022-09-30T03:47:32;7.30;99.90
53695;DHT22;39588;51.124;7.190;2022-09-30T03:50:01;7.30;99.90
53695;DHT22;39588;51.124;7.190;2022-09-30T03:52:30;7.30;99.90
53695;DHT22;39588;51.124;7.190;2022-09-30T03:55:03;7.20;99.90
53695;DHT22;39588;51.124;7.190;2022-09-30T03:57:29;7.30;99.90
53695;DHT22;39588;51.124;7.190;2022-09-30T03:59:58;7.30;99.90
53695;DHT22;39588;51.124;7.190;2022-09-30T04:02:25;7.30;99.90
53695;DHT22;39588;51.124;7.190;2022-09-30T04:04:51;7.20;99.90
53695;DHT22;39588;51.124;7.190;2022-09-30T04:07:17;7.20;99.90
53695;DHT22;39588;51.124;7.190;2022-09-30T04:09:42;7.20;99.90
53695;DHT22;39588;51.124;7.190;2022-09-30T04:12:08;7.50;99.90
53695;DHT22;39588;51.124;7.190;2022-09-30T04:14:34;7.20;99.90
53695;DHT22;39588;51.124;7.190;2022-09-30T04:17:01;7.20;99.90
53695;DHT22;39588;51.124;7.190;2022-09-30T04:19:26;7.20;99.90
53695;DHT22;39588;51.124;7.190;2022-09-30T04:21:53;7.20;99.90
53695;DHT22;39588;51.124;7.190;2022-09-30T04:24:23;7.20;99.90
53695;DHT22;39588;51.124;7.190;2022-09-30T04:26:49;7.20;99.90
53695;DHT22;39588;51.124;7.190;2022-09-30T04:29:15;7.20;99.90
53695;DHT22;39588;51.124;7.190;2022-09-30T04:31:41;7.10;99.90
53695;DHT22;39588;51.124;7.190;2022-09-30T04:34:07;7.10;99.90
53695;DHT22;39588;51.124;7.190;2022-09-30T04:36:34;7.10;99.90
53695;DHT22;39588;51.124;7.190;2022-09-30T04:39:00;7.10;99.90
53695;DHT22;39588;51.124;7.190;2022-09-30T04:41:25;7.10;99.90
53695;DHT22;39588;51.124;7.190;2022-09-30T04:43:51;7.00;99.90
53695;DHT22;39588;51.124;7.190;2022-09-30T04:46:19;7.00;99.90
53695;DHT22;39588;51.124;7.190;2022-09-30T04:48:46;7.00;99.90
53695;DHT22;39588;51.124;7.190;2022-09-30T04:51:21;7.00;99.90
53695;DHT22;39588;51.124;7.190;2022-09-30T04:53:48;7.10;99.90
53695;DHT22;39588;51.124;7.190;2022-09-30T04:56:14;7.00;99.90
53695;DHT22;39588;51.124;7.190;2022-09-30T04:58:41;7.00;99.90
53695;DHT22;39588;51.124;7.190;2022-09-30T05:01:13;7.00;99.90
53695;DHT22;39588;51.124;7.190;2022-09-30T05:03:39;7.00;99.90
53695;DHT22;39588;51.124;7.190;2022-09-30T05:06:05;7.00;99.90
53695;DHT22;39588;51.124;7.190;2022-09-30T05:08:32;7.00;99.90
53695;DHT22;39588;51.124;7.190;2022-09-30T05:11:09;7.00;99.90
53695;DHT22;39588;51.124;7.190;2022-09-30T05:13:36;7.00;99.90
53695;DHT22;39588;51.124;7.190;2022-09-30T05:16:03;6.90;99.90
53695;DHT22;39588;51.124;7.190;2022-09-30T05:18:29;7.00;99.90
53695;DHT22;39588;51.124;7.190;2022-09-30T05:20:56;6.90;99.90
53695;DHT22;39588;51.124;7.190;2022-09-30T05:23:23;6.90;99.90
53695;DHT22;39588;51.124;7.190;2022-09-30T05:25:50;6.90;99.90
53695;DHT22;39588;51.124;7.190;2022-09-30T05:28:17;6.90;99.90
53695;DHT22;39588;51.124;7.190;2022-09-30T05:30:43;6.80;99.90
53695;DHT22;39588;51.124;7.190;2022-09-30T05:33:10;6.80;99.90
53695;DHT22;39588;51.124;7.190;2022-09-30T05:35:41;6.90;99.90
53695;DHT22;39588;51.124;7.190;2022-09-30T05:38:08;6.80;99.90
53695;DHT22;39588;51.124;7.190;2022-09-30T05:40:38;6.90;99.90
53695;DHT22;39588;51.124;7.190;2022-09-30T05:43:05;6.80;99.90
53695;DHT22;39588;51.124;7.190;2022-09-30T05:45:31;6.80;99.90
53695;DHT22;39588;51.124;7.190;2022-09-30T05:47:57;6.80;99.90
53695;DHT22;39588;51.124;7.190;2022-09-30T05:50:23;6.80;99.90
53695;DHT22;39588;51.124;7.190;2022-09-30T05:52:49;6.90;99.90
53695;DHT22;39588;51.124;7.190;2022-09-30T05:55:16;6.80;99.90
53695;DHT22;39588;51.124;7.190;2022-09-30T05:57:42;6.80;99.90
53695;DHT22;39588;51.124;7.190;2022-09-30T06:00:08;6.70;99.90
53695;DHT22;39588;51.124;7.190;2022-09-30T06:02:34;6.80;99.90
53695;DHT22;39588;51.124;7.190;2022-09-30T06:05:07;6.70;99.90
53695;DHT22;39588;51.124;7.190;2022-09-30T06:07:33;6.80;99.90
53695;DHT22;39588;51.124;7.190;2022-09-30T06:10:00;6.80;99.90
53695;DHT22;39588;51.124;7.190;2022-09-30T06:12:26;6.80;99.90
53695;DHT22;39588;51.124;7.190;2022-09-30T06:14:53;6.80;99.90
53695;DHT22;39588;51.124;7.190;2022-09-30T06:17:20;6.90;99.90
53695;DHT22;39588;51.124;7.190;2022-09-30T06:19:45;6.90;99.90
53695;DHT22;39588;51.124;7.190;2022-09-30T06:22:11;6.90;99.90
53695;DHT22;39588;51.124;7.190;2022-09-30T06:24:37;6.90;99.90
53695;DHT22;39588;51.124;7.190;2022-09-30T06:27:02;7.00;99.90
53695;DHT22;39588;51.124;7.190;2022-09-30T06:29:28;7.00;99.90
53695;DHT22;39588;51.124;7.190;2022-09-30T06:31:54;7.00;99.90
53695;DHT22;39588;51.124;7.190;2022-09-30T06:34:20;7.50;99.90
53695;DHT22;39588;51.124;7.190;2022-09-30T06:36:45;7.10;99.90
53695;DHT22;39588;51.124;7.190;2022-09-30T06:39:11;7.20;99.90
53695;DHT22;39588;51.124;7.190;2022-09-30T06:41:37;7.20;99.80
53695;DHT22;39588;51.124;7.190;2022-09-30T06:44:04;7.20;99.90
53695;DHT22;39588;51.124;7.190;2022-09-30T06:46:30;7.30;99.90
53695;DHT22;39588;51.124;7.190;2022-09-30T06:48:56;7.30;99.90
53695;DHT22;39588;51.124;7.190;2022-09-30T06:51:23;7.40;99.90
53695;DHT22;39588;51.124;7.190;2022-09-30T06:53:54;7.40;99.80
53695;DHT22;39588;51.124;7.190;2022-09-30T06:56:20;7.50;99.80
53695;DHT22;39588;51.124;7.190;2022-09-30T06:58:46;7.70;99.80
53695;DHT22;39588;51.124;7.190;2022-09-30T07:01:13;7.60;99.80
53695;DHT22;39588;51.124;7.190;2022-09-30T07:03:41;7.70;99.90
53695;DHT22;39588;51.124;7.190;2022-09-30T07:06:07;7.70;99.80
53695;DHT22;39588;51.124;7.190;2022-09-30T07:08:35;7.70;99.70
53695;DHT22;39588;51.124;7.190;2022-09-30T07:11:05;7.80;99.80
53695;DHT22;39588;51.124;7.190;2022-09-30T07:13:36;7.80;99.70
53695;DHT22;39588;51.124;7.190;2022-09-30T07:16:02;7.90;99.70
53695;DHT22;39588;51.124;7.190;2022-09-30T07:18:27;8.00;99.70
53695;DHT22;39588;51.124;7.190;2022-09-30T07:20:54;8.10;99.80
53695;DHT22;39588;51.124;7.190;2022-09-30T07:23:21;8.20;99.60
53695;DHT22;39588;51.124;7.190;2022-09-30T07:25:55;8.30;99.70
53695;DHT22;39588;51.124;7.190;2022-09-30T07:28:26;8.30;99.60
53695;DHT22;39588;51.124;7.190;2022-09-30T07:30:55;8.60;99.60
53695;DHT22;39588;51.124;7.190;2022-09-30T07:33:21;8.50;99.50
53695;DHT22;39588;51.124;7.190;2022-09-30T07:35:51;8.60;99.50
53695;DHT22;39588;51.124;7.190;2022-09-30T07:38:19;8.70;99.50
53695;DHT22;39588;51.124;7.190;2022-09-30T07:43:27;8.90;99.50
53695;DHT22;39588;51.124;7.190;2022-09-30T07:46:20;9.00;99.60
53695;DHT22;39588;51.124;7.190;2022-09-30T07:48:49;9.10;99.70
53695;DHT22;39588;51.124;7.190;2022-09-30T07:51:27;9.30;99.70
53695;DHT22;39588;51.124;7.190;2022-09-30T07:53:58;9.40;99.70
53695;DHT22;39588;51.124;7.190;2022-09-30T07:56:25;9.50;99.70
53695;DHT22;39588;51.124;7.190;2022-09-30T07:58:56;9.70;99.50
53695;DHT22;39588;51.124;7.190;2022-09-30T08:01:22;9.70;99.20
53695;DHT22;39588;51.124;7.190;2022-09-30T08:03:52;9.70;99.20
53695;DHT22;39588;51.124;7.190;2022-09-30T08:06:19;9.80;99.40
53695;DHT22;39588;51.124;7.190;2022-09-30T08:08:45;9.90;99.50
53695;DHT22;39588;51.124;7.190;2022-09-30T08:11:12;10.00;98.90
53695;DHT22;39588;51.124;7.190;2022-09-30T08:13:38;10.10;99.00
53695;DHT22;39588;51.124;7.190;2022-09-30T08:16:04;10.30;98.80
53695;DHT22;39588;51.124;7.190;2022-09-30T08:18:30;10.40;98.80
53695;DHT22;39588;51.124;7.190;2022-09-30T08:20:56;10.50;98.70
53695;DHT22;39588;51.124;7.190;2022-09-30T08:23:22;10.60;98.60
53695;DHT22;39588;51.124;7.190;2022-09-30T08:25:48;10.70;98.50
53695;DHT22;39588;51.124;7.190;2022-09-30T08:28:13;10.80;98.30
53695;DHT22;39588;51.124;7.190;2022-09-30T08:30:40;10.80;98.40
53695;DHT22;39588;51.124;7.190;2022-09-30T08:33:06;10.90;98.40
53695;DHT22;39588;51.124;7.190;2022-09-30T08:35:33;10.90;98.30
53695;DHT22;39588;51.124;7.190;2022-09-30T08:37:59;10.80;98.40
53695;DHT22;39588;51.124;7.190;2022-09-30T08:40:28;10.80;98.50
53695;DHT22;39588;51.124;7.190;2022-09-30T08:48:42;11.30;98.50
53695;DHT22;39588;51.124;7.190;2022-09-30T08:51:36;11.40;98.50
53695;DHT22;39588;51.124;7.190;2022-09-30T08:54:05;11.50;98.30
53695;DHT22;39588;51.124;7.190;2022-09-30T08:56:35;11.60;98.50
53695;DHT22;39588;51.124;7.190;2022-09-30T08:59:10;11.60;98.30
53695;DHT22;39588;51.124;7.190;2022-09-30T09:01:42;11.70;98.50
53695;DHT22;39588;51.124;7.190;2022-09-30T09:04:08;11.80;98.40
53695;DHT22;39588;51.124;7.190;2022-09-30T09:07:07;11.80;98.00
53695;DHT22;39588;51.124;7.190;2022-09-30T09:14:47;11.90;98.20
53695;DHT22;39588;51.124;7.190;2022-09-30T09:20:16;12.10;98.20
53695;DHT22;39588;51.124;7.190;2022-09-30T09:22:46;12.10;98.00
53695;DHT22;39588;51.124;7.190;2022-09-30T09:25:14;12.20;97.90
53695;DHT22;39588;51.124;7.190;2022-09-30T09:30:23;12.30;97.90
53695;DHT22;39588;51.124;7.190;2022-09-30T09:32:54;12.40;97.80
53695;DHT22;39588;51.124;7.190;2022-09-30T09:38:09;12.60;97.60
53695;DHT22;39588;51.124;7.190;2022-09-30T09:54:24;13.20;97.00
53695;DHT22;39588;51.124;7.190;2022-09-30T09:56:52;13.30;96.80
53695;DHT22;39588;51.124;7.190;2022-09-30T09:59:19;13.20;96.80
53695;DHT22;39588;51.124;7.190;2022-09-30T10:01:51;13.30;96.80
53695;DHT22;39588;51.124;7.190;2022-09-30T10:04:23;13.30;97.00
53695;DHT22;39588;51.124;7.190;2022-09-30T10:07:11;13.40;96.80
53695;DHT22;39588;51.124;7.190;2022-09-30T10:09:47;13.50;96.70
53695;DHT22;39588;51.124;7.190;2022-09-30T10:14:51;13.50;96.40
53695;DHT22;39588;51.124;7.190;2022-09-30T10:17:31;13.50;96.50
53695;DHT22;39588;51.124;7.190;2022-09-30T10:20:16;13.50;96.50
53695;DHT22;39588;51.124;7.190;2022-09-30T10:22:43;13.50;96.60
53695;DHT22;39588;51.124;7.190;2022-09-30T10:27:34;13.60;96.60
53695;DHT22;39588;51.124;7.190;2022-09-30T10:30:00;13.70;96.50
53695;DHT22;39588;51.124;7.190;2022-09-30T10:32:26;13.80;96.30
53695;DHT22;39588;51.124;7.190;2022-09-30T10:35:02;13.80;96.10
53695;DHT22;39588;51.124;7.190;2022-09-30T10:37:28;13.70;96.00
53695;DHT22;39588;51.124;7.190;2022-09-30T10:42:25;13.70;95.90
53695;DHT22;39588;51.124;7.190;2022-09-30T10:44:58;13.70;96.00
53695;DHT22;39588;51.124;7.190;2022-09-30T10:47:26;13.90;96.00
53695;DHT22;39588;51.124;7.190;2022-09-30T10:52:27;14.00;95.60
53695;DHT22;39588;51.124;7.190;2022-09-30T10:54:55;14.10;95.30
53695;DHT22;39588;51.124;7.190;2022-09-30T10:57:33;14.20;95.60
53695;DHT22;39588;51.124;7.190;2022-09-30T11:00:18;14.30;95.10
53695;DHT22;39588;51.124;7.190;2022-09-30T11:03:05;14.20;94.20
53695;DHT22;39588;51.124;7.190;2022-09-30T11:05:40;14.20;94.80
53695;DHT22;39588;51.124;7.190;2022-09-30T11:10:45;14.30;94.10
53695;DHT22;39588;51.124;7.190;2022-09-30T11:19:48;14.30;94.30
53695;DHT22;39588;51.124;7.190;2022-09-30T11:24:59;14.20;94.00
53695;DHT22;39588;51.124;7.190;2022-09-30T11:30:20;14.20;93.80
53695;DHT22;39588;51.124;7.190;2022-09-30T11:35:50;14.30;94.50
53695;DHT22;39588;51.124;7.190;2022-09-30T11:52:05;14.50;92.70
53695;DHT22;39588;51.124;7.190;2022-09-30T11:54:54;14.50;92.00
53695;DHT22;39588;51.124;7.190;2022-09-30T12:00:20;14.40;92.70
53695;DHT22;39588;51.124;7.190;2022-09-30T12:02:50;14.40;92.30
53695;DHT22;39588;51.124;7.190;2022-09-30T12:05:30;14.50;92.50
53695;DHT22;39588;51.124;7.190;2022-09-30T12:13:35;14.60;91.60
53695;DHT22;39588;51.124;7.190;2022-09-30T12:16:03;14.60;91.20
53695;DHT22;39588;51.124;7.190;2022-09-30T12:18:39;14.70;91.10
53695;DHT22;39588;51.124;7.190;2022-09-30T12:21:35;14.60;91.40
53695;DHT22;39588;51.124;7.190;2022-09-30T12:24:18;14.60;91.50
53695;DHT22;39588;51.124;7.190;2022-09-30T12:26:47;14.60;91.60
53695;DHT22;39588;51.124;7.190;2022-09-30T12:49:04;14.70;90.90
53695;DHT22;39588;51.124;7.190;2022-09-30T12:51:35;14.80;90.70
53695;DHT22;39588;51.124;7.190;2022-09-30T12:54:15;14.70;90.50
53695;DHT22;39588;51.124;7.190;2022-09-30T12:56:44;14.70;90.00
53695;DHT22;39588;51.124;7.190;2022-09-30T12:59:12;14.70;90.50
53695;DHT22;39588;51.124;7.190;2022-09-30T13:01:40;14.70;90.60
53695;DHT22;39588;51.124;7.190;2022-09-30T13:09:17;14.70;90.40
53695;DHT22;39588;51.124;7.190;2022-09-30T13:27:51;17.00;91.70
53695;DHT22;39588;51.124;7.190;2022-09-30T13:44:01;14.80;90.90
53695;DHT22;39588;51.124;7.190;2022-09-30T13:46:36;14.80;90.90
53695;DHT22;39588;51.124;7.190;2022-09-30T13:49:33;14.80;91.20
53695;DHT22;39588;51.124;7.190;2022-09-30T13:51:59;14.80;91.40
53695;DHT22;39588;51.124;7.190;2022-09-30T13:54:26;14.90;91.60
53695;DHT22;39588;51.124;7.190;2022-09-30T13:56:56;15.10;90.60
53695;DHT22;39588;51.124;7.190;2022-09-30T14:07:23;15.00;90.40
53695;DHT22;39588;51.124;7.190;2022-09-30T14:10:25;15.10;90.70
53695;DHT22;39588;51.124;7.190;2022-09-30T14:21:00;15.70;88.80
53695;DHT22;39588;51.124;7.190;2022-09-30T14:23:28;15.50;90.00
53695;DHT22;39588;51.124;7.190;2022-09-30T14:31:32;15.10;89.60
53695;DHT22;39588;51.124;7.190;2022-09-30T14:33:58;15.10;89.80
53695;DHT22;39588;51.124;7.190;2022-09-30T14:36:24;15.30;89.60
53695;DHT22;39588;51.124;7.190;2022-09-30T14:38:53;15.30;89.30
53695;DHT22;39588;51.124;7.190;2022-09-30T14:41:22;15.30;88.00
53695;DHT22;39588;51.124;7.190;2022-09-30T14:43:52;15.20;90.10
53695;DHT22;39588;51.124;7.190;2022-09-30T14:46:32;15.10;90.10
53695;DHT22;39588;51.124;7.190;2022-09-30T14:49:25;15.10;89.00
53695;DHT22;39588;51.124;7.190;2022-09-30T14:51:57;15.00;89.40
53695;DHT22;39588;51.124;7.190;2022-09-30T14:54:26;14.90;88.10
53695;DHT22;39588;51.124;7.190;2022-09-30T14:56:56;14.80;88.70
53695;DHT22;39588;51.124;7.190;2022-09-30T14:59:24;14.70;88.90
53695;DHT22;39588;51.124;7.190;2022-09-30T15:01:56;14.60;89.20
53695;DHT22;39588;51.124;7.190;2022-09-30T15:04:29;14.60;89.60
53695;DHT22;39588;51.124;7.190;2022-09-30T15:06:57;14.40;88.80
53695;DHT22;39588;51.124;7.190;2022-09-30T15:09:31;14.40;89.60
53695;DHT22;39588;51.124;7.190;2022-09-30T15:14:29;14.50;89.60
53695;DHT22;39588;51.124;7.190;2022-09-30T15:16:57;14.60;90.00
53695;DHT22;39588;51.124;7.190;2022-09-30T15:19:28;14.60;89.20
53695;DHT22;39588;51.124;7.190;2022-09-30T15:22:01;14.50;88.80
53695;DHT22;39588;51.124;7.190;2022-09-30T15:24:28;14.40;89.60
53695;DHT22;39588;51.124;7.190;2022-09-30T15:26:56;14.40;90.00
53695;DHT22;39588;51.124;7.190;2022-09-30T15:29:22;14.30;89.40
53695;DHT22;39588;51.124;7.190;2022-09-30T15:34:25;14.20;89.80
53695;DHT22;39588;51.124;7.190;2022-09-30T15:37:02;14.20;89.70
53695;DHT22;39588;51.124;7.190;2022-09-30T15:39:33;14.20;90.00
53695;DHT22;39588;51.124;7.190;2022-09-30T15:42:33;14.10;90.00
53695;DHT22;39588;51.124;7.190;2022-09-30T15:45:02;14.00;90.50
53695;DHT22;39588;51.124;7.190;2022-09-30T15:47:29;13.90;90.40
53695;DHT22;39588;51.124;7.190;2022-09-30T15:49:55;13.90;90.70
53695;DHT22;39588;51.124;7.190;2022-09-30T15:52:37;13.90;90.60
53695;DHT22;39588;51.124;7.190;2022-09-30T15:55:38;13.90;91.10
53695;DHT22;39588;51.124;7.190;2022-09-30T15:58:31;13.90;91.20
53695;DHT22;39588;51.124;7.190;2022-09-30T16:01:14;13.90;91.00
53695;DHT22;39588;51.124;7.190;2022-09-30T16:04:00;13.90;91.10
53695;DHT22;39588;51.124;7.190;2022-09-30T16:15:16;13.90;91.60
53695;DHT22;39588;51.124;7.190;2022-09-30T16:17:47;13.90;91.40
53695;DHT22;39588;51.124;7.190;2022-09-30T16:30:28;13.90;92.10
53695;DHT22;39588;51.124;7.190;2022-09-30T16:32:58;13.90;92.00
53695;DHT22;39588;51.124;7.190;2022-09-30T16:35:27;13.90;92.30
53695;DHT22;39588;51.124;7.190;2022-09-30T16:38:11;13.80;92.10
53695;DHT22;39588;51.124;7.190;2022-09-30T16:40:37;13.80;92.70
53695;DHT22;39588;51.124;7.190;2022-09-30T16:43:03;13.80;92.80
53695;DHT22;39588;51.124;7.190;2022-09-30T16:45:29;13.70;92.80
53695;DHT22;39588;51.124;7.190;2022-09-30T16:47:56;13.70;92.70
53695;DHT22;39588;51.124;7.190;2022-09-30T16:50:30;13.70;93.00
53695;DHT22;39588;51.124;7.190;2022-09-30T16:52:57;13.60;93.40
53695;DHT22;39588;51.124;7.190;2022-09-30T16:55:24;13.60;93.40
53695;DHT22;39588;51.124;7.190;2022-09-30T16:57:51;12.60;93.10
53695;DHT22;39588;51.124;7.190;2022-09-30T17:00:17;13.50;93.90
53695;DHT22;39588;51.124;7.190;2022-09-30T17:02:45;13.50;93.50
53695;DHT22;39588;51.124;7.190;2022-09-30T17:05:17;13.50;93.30
53695;DHT22;39588;51.124;7.190;2022-09-30T17:07:44;13.50;93.50
53695;DHT22;39588;51.124;7.190;2022-09-30T17:10:26;13.50;93.60
53695;DHT22;39588;51.124;7.190;2022-09-30T17:12:56;13.50;93.30
53695;DHT22;39588;51.124;7.190;2022-09-30T17:15:25;13.50;93.70
53695;DHT22;39588;51.124;7.190;2022-09-30T17:17:51;13.50;93.60
53695;DHT22;39588;51.124;7.190;2022-09-30T17:20:21;13.40;93.80
53695;DHT22;39588;51.124;7.190;2022-09-30T17:22:47;13.40;93.60
53695;DHT22;39588;51.124;7.190;2022-09-30T17:25:14;13.30;93.80
53695;DHT22;39588;51.124;7.190;2022-09-30T17:27:40;13.20;93.90
53695;DHT22;39588;51.124;7.190;2022-09-30T17:30:06;13.20;93.80
53695;DHT22;39588;51.124;7.190;2022-09-30T17:32:35;13.20;93.80
53695;DHT22;39588;51.124;7.190;2022-09-30T17:35:02;13.20;94.40
53695;DHT22;39588;51.124;7.190;2022-09-30T17:37:30;13.10;93.80
53695;DHT22;39588;51.124;7.190;2022-09-30T17:39:56;13.00;93.50
53695;DHT22;39588;51.124;7.190;2022-09-30T17:42:22;12.90;93.80
53695;DHT22;39588;51.124;7.190;2022-09-30T17:45:06;12.90;93.80
53695;DHT22;39588;51.124;7.190;2022-09-30T17:47:32;12.80;94.10
53695;DHT22;39588;51.124;7.190;2022-09-30T17:49:58;12.80;94.40
53695;DHT22;39588;51.124;7.190;2022-09-30T17:52:24;12.80;94.50
53695;DHT22;39588;51.124;7.190;2022-09-30T17:54:51;12.80;94.00
53695;DHT22;39588;51.124;7.190;2022-09-30T17:57:17;12.80;93.80
53695;DHT22;39588;51.124;7.190;2022-09-30T17:59:43;12.70;93.80
53695;DHT22;39588;51.124;7.190;2022-09-30T18:02:11;12.60;93.70
53695;DHT22;39588;51.124;7.190;2022-09-30T18:04:39;12.60;93.90
53695;DHT22;39588;51.124;7.190;2022-09-30T18:07:05;12.60;94.10
53695;DHT22;39588;51.124;7.190;2022-09-30T18:09:32;12.60;94.20
53695;DHT22;39588;51.124;7.190;2022-09-30T18:12:02;12.60;93.80
53695;DHT22;39588;51.124;7.190;2022-09-30T18:14:29;12.50;93.50
53695;DHT22;39588;51.124;7.190;2022-09-30T18:16:59;12.50;93.50
53695;DHT22;39588;51.124;7.190;2022-09-30T18:19:25;12.40;93.90
53695;DHT22;39588;51.124;7.190;2022-09-30T18:21:51;12.40;93.70
53695;DHT22;39588;51.124;7.190;2022-09-30T18:31:54;12.30;93.80
53695;DHT22;39588;51.124;7.190;2022-09-30T18:36:47;12.30;93.70
53695;DHT22;39588;51.124;7.190;2022-09-30T18:39:13;12.40;93.60
53695;DHT22;39588;51.124;7.190;2022-09-30T18:41:39;12.40;93.60
53695;DHT22;39588;51.124;7.190;2022-09-30T18:44:10;12.40;93.50
53695;DHT22;39588;51.124;7.190;2022-09-30T18:46:36;12.50;93.90
53695;DHT22;39588;51.124;7.190;2022-09-30T18:49:02;12.50;93.80
53695;DHT22;39588;51.124;7.190;2022-09-30T18:51:28;12.50;93.60
53695;DHT22;39588;51.124;7.190;2022-09-30T18:53:56;12.50;93.40
53695;DHT22;39588;51.124;7.190;2022-09-30T18:56:28;12.50;93.60
53695;DHT22;39588;51.124;7.190;2022-09-30T18:59:01;12.50;93.50
53695;DHT22;39588;51.124;7.190;2022-09-30T19:01:32;12.60;93.60
53695;DHT22;39588;51.124;7.190;2022-09-30T19:04:01;12.50;93.40
53695;DHT22;39588;51.124;7.190;2022-09-30T19:06:27;12.40;93.60
53695;DHT22;39588;51.124;7.190;2022-09-30T19:08:52;12.40;93.80
53695;DHT22;39588;51.124;7.190;2022-09-30T19:13:50;12.20;94.00
53695;DHT22;39588;51.124;7.190;2022-09-30T19:16:17;12.20;93.90
53695;DHT22;39588;51.124;7.190;2022-09-30T19:18:44;12.20;94.30
53695;DHT22;39588;51.124;7.190;2022-09-30T19:21:12;12.10;94.10
53695;DHT22;39588;51.124;7.190;2022-09-30T19:23:39;12.10;94.10
53695;DHT22;39588;51.124;7.190;2022-09-30T19:26:06;12.10;94.30
53695;DHT22;39588;51.124;7.190;2022-09-30T19:28:33;12.10;94.30
53695;DHT22;39588;51.124;7.190;2022-09-30T19:31:09;12.00;94.10
53695;DHT22;39588;51.124;7.190;2022-09-30T19:33:36;12.00;94.20
53695;DHT22;39588;51.124;7.190;2022-09-30T19:36:08;12.00;94.30
53695;DHT22;39588;51.124;7.190;2022-09-30T19:38:35;11.90;94.10
53695;DHT22;39588;51.124;7.190;2022-09-30T19:41:04;11.80;94.40
53695;DHT22;39588;51.124;7.190;2022-09-30T19:43:31;11.70;94.60
53695;DHT22;39588;51.124;7.190;2022-09-30T19:46:05;11.60;94.50
53695;DHT22;39588;51.124;7.190;2022-09-30T19:48:33;11.50;94.70
53695;DHT22;39588;51.124;7.190;2022-09-30T19:53:34;11.40;94.90
53695;DHT22;39588;51.124;7.190;2022-09-30T19:56:15;11.30;95.10
53695;DHT22;39588;51.124;7.190;2022-09-30T19:58:43;11.30;95.20
53695;DHT22;39588;51.124;7.190;2022-09-30T20:01:10;11.30;95.00
53695;DHT22;39588;51.124;7.190;2022-09-30T20:03:37;11.30;95.00
53695;DHT22;39588;51.124;7.190;2022-09-30T20:06:05;11.30;95.10
53695;DHT22;39588;51.124;7.190;2022-09-30T20:08:34;11.30;95.10
53695;DHT22;39588;51.124;7.190;2022-09-30T20:11:10;11.20;95.10
53695;DHT22;39588;51.124;7.190;2022-09-30T20:13:36;11.10;95.10
53695;DHT22;39588;51.124;7.190;2022-09-30T20:16:05;11.10;95.20
53695;DHT22;39588;51.124;7.190;2022-09-30T20:18:32;11.10;95.20